sensor_id;sensor_type;location;lat;lon;timestamp;P1;durP1;ratioP1;P2;durP2;ratioP2
73474;SDS011;61711;52.266;10.542;2022-08-04T00:04:08;10.82;;;7.32;;
73474;SDS011;61711;52.266;10.542;2022-08-04T00:06:47;9.18;;;6.85;;
73474;SDS011;61711;52.266;10.542;2022-08-04T00:09:16;10.68;;;6.80;;
73474;SDS011;61711;52.266;10.542;2022-08-04T00:11:44;8.07;;;6.70;;
73474;SDS011;61711;52.266;10.542;2022-08-04T00:14:14;7.45;;;6.70;;
73474;SDS011;61711;52.266;10.542;2022-08-04T00:16:41;9.82;;;6.45;;
73474;SDS011;61711;52.266;10.542;2022-08-04T00:21:37;9.15;;;6.45;;
73474;SDS011;61711;52.266;10.542;2022-08-04T00:24:04;10.95;;;6.82;;
73474;SDS011;61711;52.266;10.542;2022-08-04T00:26:31;10.57;;;6.93;;
73474;SDS011;61711;52.266;10.542;2022-08-04T00:28:58;10.48;;;6.70;;
73474;SDS011;61711;52.266;10.542;2022-08-04T00:31:25;10.18;;;6.60;;
73474;SDS011;61711;52.266;10.542;2022-08-04T00:33:51;10.40;;;6.95;;
73474;SDS011;61711;52.266;10.542;2022-08-04T00:36:17;12.80;;;6.82;;
73474;SDS011;61711;52.266;10.542;2022-08-04T00:38:43;10.45;;;7.32;;
73474;SDS011;61711;52.266;10.542;2022-08-04T00:46:31;8.30;;;7.15;;
73474;SDS011;61711;52.266;10.542;2022-08-04T00:51:43;8.40;;;6.75;;
73474;SDS011;61711;52.266;10.542;2022-08-04T00:57:01;10.95;;;6.97;;
73474;SDS011;61711;52.266;10.542;2022-08-04T00:59:43;10.50;;;7.20;;
73474;SDS011;61711;52.266;10.542;2022-08-04T01:02:21;8.75;;;7.20;;
73474;SDS011;61711;52.266;10.542;2022-08-04T01:10:04;10.40;;;7.57;;
73474;SDS011;61711;52.266;10.542;2022-08-04T01:15:30;14.30;;;6.85;;
73474;SDS011;61711;52.266;10.542;2022-08-04T01:18:04;8.15;;;7.03;;
73474;SDS011;61711;52.266;10.542;2022-08-04T01:20:38;11.40;;;7.07;;
73474;SDS011;61711;52.266;10.542;2022-08-04T01:30:31;8.18;;;6.68;;
73474;SDS011;61711;52.266;10.542;2022-08-04T01:33:01;7.57;;;6.88;;
73474;SDS011;61711;52.266;10.542;2022-08-04T01:35:29;12.07;;;7.10;;
73474;SDS011;61711;52.266;10.542;2022-08-04T01:38:06;8.32;;;6.35;;
73474;SDS011;61711;52.266;10.542;2022-08-04T01:40:37;10.15;;;7.13;;
73474;SDS011;61711;52.266;10.542;2022-08-04T01:43:03;11.38;;;6.88;;
73474;SDS011;61711;52.266;10.542;2022-08-04T01:45:30;7.60;;;6.45;;
73474;SDS011;61711;52.266;10.542;2022-08-04T01:47:56;7.65;;;6.22;;
73474;SDS011;61711;52.266;10.542;2022-08-04T01:50:23;7.18;;;6.25;;
73474;SDS011;61711;52.266;10.542;2022-08-04T01:52:52;8.70;;;6.47;;
73474;SDS011;61711;52.266;10.542;2022-08-04T01:55:18;9.77;;;6.13;;
73474;SDS011;61711;52.266;10.542;2022-08-04T01:57:47;8.85;;;6.30;;
73474;SDS011;61711;52.266;10.542;2022-08-04T02:00:15;6.78;;;6.13;;
73474;SDS011;61711;52.266;10.542;2022-08-04T02:02:43;7.22;;;6.03;;
73474;SDS011;61711;52.266;10.542;2022-08-04T02:05:15;9.88;;;6.60;;
73474;SDS011;61711;52.266;10.542;2022-08-04T02:07:46;8.23;;;6.57;;
73474;SDS011;61711;52.266;10.542;2022-08-04T02:15:37;9.73;;;6.68;;
73474;SDS011;61711;52.266;10.542;2022-08-04T02:18:06;6.93;;;6.22;;
73474;SDS011;61711;52.266;10.542;2022-08-04T02:20:41;7.13;;;6.43;;
73474;SDS011;61711;52.266;10.542;2022-08-04T02:23:09;8.02;;;6.50;;
73474;SDS011;61711;52.266;10.542;2022-08-04T02:25:39;8.35;;;6.43;;
73474;SDS011;61711;52.266;10.542;2022-08-04T02:33:25;9.95;;;6.38;;
73474;SDS011;61711;52.266;10.542;2022-08-04T02:35:52;8.23;;;6.57;;
73474;SDS011;61711;52.266;10.542;2022-08-04T02:38:26;7.03;;;6.03;;
73474;SDS011;61711;52.266;10.542;2022-08-04T02:40:56;7.10;;;6.13;;
73474;SDS011;61711;52.266;10.542;2022-08-04T02:43:25;8.55;;;6.63;;
73474;SDS011;61711;52.266;10.542;2022-08-04T02:45:54;8.00;;;6.20;;
73474;SDS011;61711;52.266;10.542;2022-08-04T02:48:23;9.43;;;6.55;;
73474;SDS011;61711;52.266;10.542;2022-08-04T02:50:49;7.78;;;6.45;;
73474;SDS011;61711;52.266;10.542;2022-08-04T02:53:15;9.95;;;6.30;;
73474;SDS011;61711;52.266;10.542;2022-08-04T02:55:43;7.20;;;6.40;;
73474;SDS011;61711;52.266;10.542;2022-08-04T02:58:09;7.05;;;6.35;;
73474;SDS011;61711;52.266;10.542;2022-08-04T03:00:37;8.50;;;6.50;;
73474;SDS011;61711;52.266;10.542;2022-08-04T03:05:35;6.57;;;5.88;;
73474;SDS011;61711;52.266;10.542;2022-08-04T03:08:23;7.63;;;6.75;;
73474;SDS011;61711;52.266;10.542;2022-08-04T03:13:36;11.00;;;6.90;;
73474;SDS011;61711;52.266;10.542;2022-08-04T03:24:06;9.40;;;6.50;;
73474;SDS011;61711;52.266;10.542;2022-08-04T03:29:16;9.88;;;6.30;;
73474;SDS011;61711;52.266;10.542;2022-08-04T03:34:24;8.30;;;6.18;;
73474;SDS011;61711;52.266;10.542;2022-08-04T03:42:38;9.75;;;6.60;;
73474;SDS011;61711;52.266;10.542;2022-08-04T03:45:14;7.65;;;6.35;;
73474;SDS011;61711;52.266;10.542;2022-08-04T04:33:18;9.77;;;7.82;;
73474;SDS011;61711;52.266;10.542;2022-08-04T04:35:56;9.93;;;8.07;;
73474;SDS011;61711;52.266;10.542;2022-08-04T04:38:28;11.40;;;7.70;;
73474;SDS011;61711;52.266;10.542;2022-08-04T04:40:58;11.60;;;7.72;;
73474;SDS011;61711;52.266;10.542;2022-08-04T04:51:19;13.77;;;9.35;;
73474;SDS011;61711;52.266;10.542;2022-08-04T04:53:50;16.77;;;9.50;;
73474;SDS011;61711;52.266;10.542;2022-08-04T04:59:04;16.60;;;9.73;;
73474;SDS011;61711;52.266;10.542;2022-08-04T05:14:13;11.63;;;8.50;;
73474;SDS011;61711;52.266;10.542;2022-08-04T05:16:45;13.98;;;8.93;;
73474;SDS011;61711;52.266;10.542;2022-08-04T05:19:18;10.93;;;8.38;;
73474;SDS011;61711;52.266;10.542;2022-08-04T05:22:01;13.27;;;8.45;;
73474;SDS011;61711;52.266;10.542;2022-08-04T05:24:30;11.80;;;8.45;;
73474;SDS011;61711;52.266;10.542;2022-08-04T05:27:00;13.02;;;8.32;;
73474;SDS011;61711;52.266;10.542;2022-08-04T05:29:36;11.93;;;8.40;;
73474;SDS011;61711;52.266;10.542;2022-08-04T05:32:04;12.45;;;7.90;;
73474;SDS011;61711;52.266;10.542;2022-08-04T05:34:39;15.20;;;8.55;;
73474;SDS011;61711;52.266;10.542;2022-08-04T05:37:08;12.68;;;8.70;;
73474;SDS011;61711;52.266;10.542;2022-08-04T05:39:38;11.48;;;8.30;;
73474;SDS011;61711;52.266;10.542;2022-08-04T05:42:06;9.90;;;8.02;;
73474;SDS011;61711;52.266;10.542;2022-08-04T05:44:34;12.60;;;8.50;;
73474;SDS011;61711;52.266;10.542;2022-08-04T05:47:01;14.05;;;8.32;;
73474;SDS011;61711;52.266;10.542;2022-08-04T05:49:28;12.27;;;8.23;;
73474;SDS011;61711;52.266;10.542;2022-08-04T05:51:55;12.90;;;8.45;;
73474;SDS011;61711;52.266;10.542;2022-08-04T05:54:22;14.68;;;8.40;;
73474;SDS011;61711;52.266;10.542;2022-08-04T05:56:49;17.92;;;8.75;;
73474;SDS011;61711;52.266;10.542;2022-08-04T05:59:15;10.30;;;7.65;;
73474;SDS011;61711;52.266;10.542;2022-08-04T06:01:43;10.30;;;8.10;;
73474;SDS011;61711;52.266;10.542;2022-08-04T06:04:10;16.17;;;8.38;;
73474;SDS011;61711;52.266;10.542;2022-08-04T06:06:37;17.85;;;7.35;;
73474;SDS011;61711;52.266;10.542;2022-08-04T06:09:03;10.00;;;7.30;;
73474;SDS011;61711;52.266;10.542;2022-08-04T06:11:29;10.80;;;7.72;;
73474;SDS011;61711;52.266;10.542;2022-08-04T06:13:57;10.43;;;6.78;;
73474;SDS011;61711;52.266;10.542;2022-08-04T06:16:25;11.70;;;6.80;;
73474;SDS011;61711;52.266;10.542;2022-08-04T06:18:52;10.10;;;6.85;;
73474;SDS011;61711;52.266;10.542;2022-08-04T06:21:21;9.25;;;7.13;;
73474;SDS011;61711;52.266;10.542;2022-08-04T06:23:48;12.50;;;6.57;;
73474;SDS011;61711;52.266;10.542;2022-08-04T06:26:15;12.40;;;6.80;;
73474;SDS011;61711;52.266;10.542;2022-08-04T06:28:47;9.65;;;6.35;;
73474;SDS011;61711;52.266;10.542;2022-08-04T06:31:14;7.07;;;6.35;;
73474;SDS011;61711;52.266;10.542;2022-08-04T06:33:55;10.38;;;6.53;;
73474;SDS011;61711;52.266;10.542;2022-08-04T06:36:22;9.88;;;6.28;;
73474;SDS011;61711;52.266;10.542;2022-08-04T06:38:49;7.63;;;5.80;;
73474;SDS011;61711;52.266;10.542;2022-08-04T06:41:15;7.72;;;5.88;;
73474;SDS011;61711;52.266;10.542;2022-08-04T06:43:41;8.27;;;5.85;;
73474;SDS011;61711;52.266;10.542;2022-08-04T06:46:08;8.00;;;6.40;;
73474;SDS011;61711;52.266;10.542;2022-08-04T06:48:34;8.68;;;5.47;;
73474;SDS011;61711;52.266;10.542;2022-08-04T06:51:00;7.30;;;5.90;;
73474;SDS011;61711;52.266;10.542;2022-08-04T06:53:26;8.88;;;5.80;;
73474;SDS011;61711;52.266;10.542;2022-08-04T06:55:53;5.97;;;5.32;;
73474;SDS011;61711;52.266;10.542;2022-08-04T06:58:21;8.68;;;5.35;;
73474;SDS011;61711;52.266;10.542;2022-08-04T07:00:48;7.20;;;5.35;;
73474;SDS011;61711;52.266;10.542;2022-08-04T07:03:14;8.73;;;5.28;;
73474;SDS011;61711;52.266;10.542;2022-08-04T07:05:41;7.15;;;5.13;;
73474;SDS011;61711;52.266;10.542;2022-08-04T07:08:10;7.88;;;5.18;;
73474;SDS011;61711;52.266;10.542;2022-08-04T07:10:36;6.90;;;5.00;;
73474;SDS011;61711;52.266;10.542;2022-08-04T07:13:03;11.70;;;4.97;;
73474;SDS011;61711;52.266;10.542;2022-08-04T07:15:31;6.10;;;4.88;;
73474;SDS011;61711;52.266;10.542;2022-08-04T07:17:57;5.88;;;4.75;;
73474;SDS011;61711;52.266;10.542;2022-08-04T07:20:26;5.53;;;4.85;;
73474;SDS011;61711;52.266;10.542;2022-08-04T07:22:53;7.65;;;4.78;;
73474;SDS011;61711;52.266;10.542;2022-08-04T07:25:19;7.60;;;5.03;;
73474;SDS011;61711;52.266;10.542;2022-08-04T07:27:45;6.78;;;4.43;;
73474;SDS011;61711;52.266;10.542;2022-08-04T07:30:11;4.80;;;4.30;;
73474;SDS011;61711;52.266;10.542;2022-08-04T07:32:37;5.63;;;4.30;;
73474;SDS011;61711;52.266;10.542;2022-08-04T07:35:07;6.82;;;4.80;;
73474;SDS011;61711;52.266;10.542;2022-08-04T07:37:33;8.48;;;4.28;;
73474;SDS011;61711;52.266;10.542;2022-08-04T07:40:00;8.32;;;4.47;;
73474;SDS011;61711;52.266;10.542;2022-08-04T07:42:26;5.55;;;4.53;;
73474;SDS011;61711;52.266;10.542;2022-08-04T07:44:52;4.47;;;4.07;;
73474;SDS011;61711;52.266;10.542;2022-08-04T07:47:21;5.47;;;4.15;;
73474;SDS011;61711;52.266;10.542;2022-08-04T07:49:49;5.35;;;3.75;;
73474;SDS011;61711;52.266;10.542;2022-08-04T07:52:16;5.85;;;3.80;;
73474;SDS011;61711;52.266;10.542;2022-08-04T07:54:42;6.07;;;4.07;;
73474;SDS011;61711;52.266;10.542;2022-08-04T07:57:08;8.75;;;4.10;;
73474;SDS011;61711;52.266;10.542;2022-08-04T07:59:34;4.60;;;4.18;;
73474;SDS011;61711;52.266;10.542;2022-08-04T08:02:01;4.95;;;4.05;;
73474;SDS011;61711;52.266;10.542;2022-08-04T08:04:27;5.03;;;4.20;;
73474;SDS011;61711;52.266;10.542;2022-08-04T08:06:53;8.25;;;4.25;;
73474;SDS011;61711;52.266;10.542;2022-08-04T08:09:19;7.25;;;4.18;;
73474;SDS011;61711;52.266;10.542;2022-08-04T08:11:46;6.10;;;3.70;;
73474;SDS011;61711;52.266;10.542;2022-08-04T08:14:13;6.53;;;3.95;;
73474;SDS011;61711;52.266;10.542;2022-08-04T08:16:40;5.05;;;4.00;;
73474;SDS011;61711;52.266;10.542;2022-08-04T08:19:06;6.07;;;3.97;;
73474;SDS011;61711;52.266;10.542;2022-08-04T08:21:32;7.35;;;4.20;;
73474;SDS011;61711;52.266;10.542;2022-08-04T08:23:58;5.82;;;4.10;;
73474;SDS011;61711;52.266;10.542;2022-08-04T08:26:25;6.18;;;3.80;;
73474;SDS011;61711;52.266;10.542;2022-08-04T08:28:51;5.15;;;4.15;;
73474;SDS011;61711;52.266;10.542;2022-08-04T08:31:18;7.18;;;4.20;;
73474;SDS011;61711;52.266;10.542;2022-08-04T08:33:44;6.47;;;4.05;;
73474;SDS011;61711;52.266;10.542;2022-08-04T08:54:14;6.82;;;3.80;;
73474;SDS011;61711;52.266;10.542;2022-08-04T08:56:51;7.03;;;4.32;;
73474;SDS011;61711;52.266;10.542;2022-08-04T09:12:08;5.13;;;3.85;;
73474;SDS011;61711;52.266;10.542;2022-08-04T09:14:39;4.10;;;3.70;;
73474;SDS011;61711;52.266;10.542;2022-08-04T09:17:10;7.65;;;5.60;;
73474;SDS011;61711;52.266;10.542;2022-08-04T09:19:41;8.10;;;6.63;;
73474;SDS011;61711;52.266;10.542;2022-08-04T09:22:18;4.07;;;3.67;;
73474;SDS011;61711;52.266;10.542;2022-08-04T09:27:15;4.40;;;3.95;;
73474;SDS011;61711;52.266;10.542;2022-08-04T09:29:56;4.30;;;3.63;;
73474;SDS011;61711;52.266;10.542;2022-08-04T09:37:46;7.18;;;3.70;;
73474;SDS011;61711;52.266;10.542;2022-08-04T09:47:48;4.93;;;3.88;;
73474;SDS011;61711;52.266;10.542;2022-08-04T09:53:02;3.67;;;3.38;;
73474;SDS011;61711;52.266;10.542;2022-08-04T09:58:00;7.22;;;3.80;;
73474;SDS011;61711;52.266;10.542;2022-08-04T10:00:33;6.15;;;4.00;;
73474;SDS011;61711;52.266;10.542;2022-08-04T10:03:01;5.05;;;3.90;;
73474;SDS011;61711;52.266;10.542;2022-08-04T10:11:06;4.05;;;3.65;;
73474;SDS011;61711;52.266;10.542;2022-08-04T10:13:46;6.72;;;3.83;;
73474;SDS011;61711;52.266;10.542;2022-08-04T10:21:10;4.30;;;3.90;;
73474;SDS011;61711;52.266;10.542;2022-08-04T10:29:12;7.35;;;3.67;;
73474;SDS011;61711;52.266;10.542;2022-08-04T10:32:10;4.72;;;3.90;;
73474;SDS011;61711;52.266;10.542;2022-08-04T10:34:27;4.43;;;3.75;;
73474;SDS011;61711;52.266;10.542;2022-08-04T10:36:59;3.92;;;3.63;;
73474;SDS011;61711;52.266;10.542;2022-08-04T10:42:34;7.75;;;3.67;;
73474;SDS011;61711;52.266;10.542;2022-08-04T10:45:07;5.35;;;3.65;;
73474;SDS011;61711;52.266;10.542;2022-08-04T10:50:22;4.88;;;3.85;;
73474;SDS011;61711;52.266;10.542;2022-08-04T10:53:02;3.92;;;3.30;;
73474;SDS011;61711;52.266;10.542;2022-08-04T10:55:32;7.65;;;3.72;;
73474;SDS011;61711;52.266;10.542;2022-08-04T10:58:01;4.03;;;3.72;;
73474;SDS011;61711;52.266;10.542;2022-08-04T11:00:27;5.90;;;3.80;;
73474;SDS011;61711;52.266;10.542;2022-08-04T11:08:10;4.80;;;3.42;;
73474;SDS011;61711;52.266;10.542;2022-08-04T11:10:39;3.60;;;3.30;;
73474;SDS011;61711;52.266;10.542;2022-08-04T11:13:07;6.18;;;3.60;;
73474;SDS011;61711;52.266;10.542;2022-08-04T11:15:35;4.03;;;3.70;;
73474;SDS011;61711;52.266;10.542;2022-08-04T11:18:07;3.70;;;3.35;;
73474;SDS011;61711;52.266;10.542;2022-08-04T11:23:10;5.88;;;3.75;;
73474;SDS011;61711;52.266;10.542;2022-08-04T11:31:02;5.65;;;3.58;;
73474;SDS011;61711;52.266;10.542;2022-08-04T11:38:50;3.58;;;3.28;;
73474;SDS011;61711;52.266;10.542;2022-08-04T11:41:23;3.50;;;3.10;;
73474;SDS011;61711;52.266;10.542;2022-08-04T11:43:54;5.80;;;3.40;;
73474;SDS011;61711;52.266;10.542;2022-08-04T11:46:23;3.20;;;3.00;;
73474;SDS011;61711;52.266;10.542;2022-08-04T11:49:02;3.63;;;3.15;;
73474;SDS011;61711;52.266;10.542;2022-08-04T11:51:30;4.75;;;3.20;;
73474;SDS011;61711;52.266;10.542;2022-08-04T11:53:57;3.50;;;3.08;;
73474;SDS011;61711;52.266;10.542;2022-08-04T11:56:24;3.40;;;2.95;;
73474;SDS011;61711;52.266;10.542;2022-08-04T11:58:50;4.00;;;3.60;;
73474;SDS011;61711;52.266;10.542;2022-08-04T12:01:37;3.75;;;3.10;;
73474;SDS011;61711;52.266;10.542;2022-08-04T12:12:12;4.47;;;3.08;;
73474;SDS011;61711;52.266;10.542;2022-08-04T12:17:21;3.38;;;2.90;;
73474;SDS011;61711;52.266;10.542;2022-08-04T12:19:50;3.40;;;3.10;;
73474;SDS011;61711;52.266;10.542;2022-08-04T12:22:21;5.00;;;3.10;;
73474;SDS011;61711;52.266;10.542;2022-08-04T12:27:26;3.13;;;2.92;;
73474;SDS011;61711;52.266;10.542;2022-08-04T12:29:54;4.15;;;3.03;;
73474;SDS011;61711;52.266;10.542;2022-08-04T12:32:22;3.30;;;3.00;;
73474;SDS011;61711;52.266;10.542;2022-08-04T12:37:37;5.18;;;3.22;;
73474;SDS011;61711;52.266;10.542;2022-08-04T12:40:07;4.60;;;3.10;;
73474;SDS011;61711;52.266;10.542;2022-08-04T12:45:04;4.00;;;2.83;;
73474;SDS011;61711;52.266;10.542;2022-08-04T12:47:32;3.75;;;3.28;;
73474;SDS011;61711;52.266;10.542;2022-08-04T12:50:00;3.55;;;3.10;;
73474;SDS011;61711;52.266;10.542;2022-08-04T12:52:27;2.97;;;2.70;;
73474;SDS011;61711;52.266;10.542;2022-08-04T12:54:55;3.10;;;2.80;;
73474;SDS011;61711;52.266;10.542;2022-08-04T12:57:22;5.18;;;3.10;;
73474;SDS011;61711;52.266;10.542;2022-08-04T12:59:48;4.07;;;3.00;;
73474;SDS011;61711;52.266;10.542;2022-08-04T13:02:22;6.90;;;3.22;;
73474;SDS011;61711;52.266;10.542;2022-08-04T13:04:49;4.78;;;3.30;;
73474;SDS011;61711;52.266;10.542;2022-08-04T13:07:19;3.83;;;3.30;;
73474;SDS011;61711;52.266;10.542;2022-08-04T13:09:45;4.07;;;3.33;;
73474;SDS011;61711;52.266;10.542;2022-08-04T13:12:12;3.60;;;3.30;;
73474;SDS011;61711;52.266;10.542;2022-08-04T13:14:39;3.60;;;3.30;;
73474;SDS011;61711;52.266;10.542;2022-08-04T13:17:12;3.58;;;3.28;;
73474;SDS011;61711;52.266;10.542;2022-08-04T13:19:38;4.82;;;3.35;;
73474;SDS011;61711;52.266;10.542;2022-08-04T13:22:04;3.58;;;3.28;;
73474;SDS011;61711;52.266;10.542;2022-08-04T13:24:31;5.35;;;3.58;;
73474;SDS011;61711;52.266;10.542;2022-08-04T13:26:59;3.85;;;3.40;;
73474;SDS011;61711;52.266;10.542;2022-08-04T13:31:59;5.82;;;3.50;;
73474;SDS011;61711;52.266;10.542;2022-08-04T13:34:26;3.88;;;3.55;;
73474;SDS011;61711;52.266;10.542;2022-08-04T13:36:53;4.07;;;3.47;;
73474;SDS011;61711;52.266;10.542;2022-08-04T13:39:20;3.35;;;3.05;;
73474;SDS011;61711;52.266;10.542;2022-08-04T13:41:51;4.85;;;3.10;;
73474;SDS011;61711;52.266;10.542;2022-08-04T13:44:22;4.00;;;3.70;;
73474;SDS011;61711;52.266;10.542;2022-08-04T13:47:11;3.67;;;3.30;;
73474;SDS011;61711;52.266;10.542;2022-08-04T13:49:36;5.35;;;3.88;;
73474;SDS011;61711;52.266;10.542;2022-08-04T13:52:03;4.65;;;3.63;;
73474;SDS011;61711;52.266;10.542;2022-08-04T13:54:40;5.25;;;3.50;;
73474;SDS011;61711;52.266;10.542;2022-08-04T13:57:18;4.65;;;3.33;;
73474;SDS011;61711;52.266;10.542;2022-08-04T13:59:47;5.43;;;3.42;;
73474;SDS011;61711;52.266;10.542;2022-08-04T14:02:24;4.63;;;3.15;;
73474;SDS011;61711;52.266;10.542;2022-08-04T14:04:53;5.47;;;3.33;;
73474;SDS011;61711;52.266;10.542;2022-08-04T14:07:21;3.55;;;3.25;;
73474;SDS011;61711;52.266;10.542;2022-08-04T14:09:50;4.50;;;3.00;;
73474;SDS011;61711;52.266;10.542;2022-08-04T14:12:16;3.65;;;3.35;;
73474;SDS011;61711;52.266;10.542;2022-08-04T14:14:44;4.75;;;3.28;;
73474;SDS011;61711;52.266;10.542;2022-08-04T14:17:15;4.72;;;3.30;;
73474;SDS011;61711;52.266;10.542;2022-08-04T14:22:27;7.07;;;3.20;;
73474;SDS011;61711;52.266;10.542;2022-08-04T14:27:22;3.35;;;2.90;;
73474;SDS011;61711;52.266;10.542;2022-08-04T14:29:48;5.45;;;3.13;;
73474;SDS011;61711;52.266;10.542;2022-08-04T14:32:14;3.83;;;3.42;;
73474;SDS011;61711;52.266;10.542;2022-08-04T14:34:41;5.45;;;3.20;;
73474;SDS011;61711;52.266;10.542;2022-08-04T14:37:15;3.58;;;3.28;;
73474;SDS011;61711;52.266;10.542;2022-08-04T14:39:51;3.88;;;3.53;;
73474;SDS011;61711;52.266;10.542;2022-08-04T14:42:21;9.73;;;8.73;;
73474;SDS011;61711;52.266;10.542;2022-08-04T14:45:04;8.75;;;5.50;;
73474;SDS011;61711;52.266;10.542;2022-08-04T14:50:06;5.07;;;3.53;;
73474;SDS011;61711;52.266;10.542;2022-08-04T14:52:32;5.40;;;3.50;;
73474;SDS011;61711;52.266;10.542;2022-08-04T14:55:13;5.88;;;3.50;;
73474;SDS011;61711;52.266;10.542;2022-08-04T14:57:39;5.28;;;3.28;;
73474;SDS011;61711;52.266;10.542;2022-08-04T15:00:06;9.30;;;7.45;;
73474;SDS011;61711;52.266;10.542;2022-08-04T15:02:32;7.28;;;6.10;;
73474;SDS011;61711;52.266;10.542;2022-08-04T15:05:00;5.00;;;3.58;;
73474;SDS011;61711;52.266;10.542;2022-08-04T15:07:27;3.50;;;3.20;;
73474;SDS011;61711;52.266;10.542;2022-08-04T15:09:53;3.58;;;3.28;;
73474;SDS011;61711;52.266;10.542;2022-08-04T15:12:20;4.50;;;3.47;;
73474;SDS011;61711;52.266;10.542;2022-08-04T15:14:46;3.55;;;3.22;;
73474;SDS011;61711;52.266;10.542;2022-08-04T15:17:12;3.75;;;3.40;;
73474;SDS011;61711;52.266;10.542;2022-08-04T15:19:38;5.82;;;3.35;;
73474;SDS011;61711;52.266;10.542;2022-08-04T15:22:05;4.53;;;3.20;;
73474;SDS011;61711;52.266;10.542;2022-08-04T15:24:31;4.05;;;3.40;;
73474;SDS011;61711;52.266;10.542;2022-08-04T15:26:58;4.47;;;3.92;;
73474;SDS011;61711;52.266;10.542;2022-08-04T15:29:30;4.07;;;3.45;;
73474;SDS011;61711;52.266;10.542;2022-08-04T15:31:57;5.60;;;3.20;;
73474;SDS011;61711;52.266;10.542;2022-08-04T15:34:27;7.20;;;3.58;;
73474;SDS011;61711;52.266;10.542;2022-08-04T15:37:07;4.13;;;3.63;;
73474;SDS011;61711;52.266;10.542;2022-08-04T15:39:37;4.75;;;3.58;;
73474;SDS011;61711;52.266;10.542;2022-08-04T15:47:16;3.80;;;3.13;;
73474;SDS011;61711;52.266;10.542;2022-08-04T15:49:42;5.15;;;3.30;;
73474;SDS011;61711;52.266;10.542;2022-08-04T15:52:13;3.88;;;3.33;;
73474;SDS011;61711;52.266;10.542;2022-08-04T15:54:40;3.50;;;3.20;;
73474;SDS011;61711;52.266;10.542;2022-08-04T15:57:07;4.63;;;3.55;;
73474;SDS011;61711;52.266;10.542;2022-08-04T16:07:54;3.78;;;3.45;;
73474;SDS011;61711;52.266;10.542;2022-08-04T16:13:17;4.95;;;4.28;;
73474;SDS011;61711;52.266;10.542;2022-08-04T16:15:54;5.18;;;3.63;;
73474;SDS011;61711;52.266;10.542;2022-08-04T16:18:34;4.97;;;4.25;;
73474;SDS011;61711;52.266;10.542;2022-08-04T16:21:02;5.20;;;3.80;;
73474;SDS011;61711;52.266;10.542;2022-08-04T16:26:13;5.05;;;4.18;;
73474;SDS011;61711;52.266;10.542;2022-08-04T16:28:41;4.65;;;3.75;;
73474;SDS011;61711;52.266;10.542;2022-08-04T16:31:10;6.13;;;3.92;;
73474;SDS011;61711;52.266;10.542;2022-08-04T16:33:37;4.28;;;3.80;;
73474;SDS011;61711;52.266;10.542;2022-08-04T16:36:07;4.22;;;3.53;;
73474;SDS011;61711;52.266;10.542;2022-08-04T16:39:18;6.47;;;3.67;;
73474;SDS011;61711;52.266;10.542;2022-08-04T16:41:36;5.60;;;3.50;;
73474;SDS011;61711;52.266;10.542;2022-08-04T16:46:47;5.22;;;4.00;;
73474;SDS011;61711;52.266;10.542;2022-08-04T16:49:13;4.57;;;4.00;;
73474;SDS011;61711;52.266;10.542;2022-08-04T16:51:39;4.35;;;3.95;;
73474;SDS011;61711;52.266;10.542;2022-08-04T16:54:06;4.30;;;3.90;;
73474;SDS011;61711;52.266;10.542;2022-08-04T16:56:32;5.38;;;3.92;;
73474;SDS011;61711;52.266;10.542;2022-08-04T16:59:03;4.85;;;3.83;;
73474;SDS011;61711;52.266;10.542;2022-08-04T17:01:30;4.60;;;4.00;;
73474;SDS011;61711;52.266;10.542;2022-08-04T17:03:56;5.40;;;4.40;;
73474;SDS011;61711;52.266;10.542;2022-08-04T17:06:32;4.40;;;4.00;;
73474;SDS011;61711;52.266;10.542;2022-08-04T17:08:58;4.80;;;4.07;;
73474;SDS011;61711;52.266;10.542;2022-08-04T17:11:31;5.78;;;4.18;;
73474;SDS011;61711;52.266;10.542;2022-08-04T17:13:58;4.97;;;3.60;;
73474;SDS011;61711;52.266;10.542;2022-08-04T17:16:24;4.57;;;3.63;;
73474;SDS011;61711;52.266;10.542;2022-08-04T17:18:53;5.95;;;4.10;;
73474;SDS011;61711;52.266;10.542;2022-08-04T17:21:30;4.35;;;3.95;;
73474;SDS011;61711;52.266;10.542;2022-08-04T17:23:57;6.10;;;4.20;;
73474;SDS011;61711;52.266;10.542;2022-08-04T17:26:24;6.65;;;4.15;;
73474;SDS011;61711;52.266;10.542;2022-08-04T17:28:51;6.35;;;4.15;;
73474;SDS011;61711;52.266;10.542;2022-08-04T17:31:21;8.82;;;3.90;;
73474;SDS011;61711;52.266;10.542;2022-08-04T17:33:51;6.53;;;4.20;;
73474;SDS011;61711;52.266;10.542;2022-08-04T17:36:21;14.13;;;3.80;;
73474;SDS011;61711;52.266;10.542;2022-08-04T17:38:48;6.25;;;3.78;;
73474;SDS011;61711;52.266;10.542;2022-08-04T17:41:19;6.25;;;4.03;;
73474;SDS011;61711;52.266;10.542;2022-08-04T17:43:50;10.00;;;3.85;;
73474;SDS011;61711;52.266;10.542;2022-08-04T17:46:23;8.05;;;3.67;;
73474;SDS011;61711;52.266;10.542;2022-08-04T17:49:01;12.18;;;3.55;;
73474;SDS011;61711;52.266;10.542;2022-08-04T17:51:34;8.70;;;3.83;;
73474;SDS011;61711;52.266;10.542;2022-08-04T17:54:01;7.63;;;3.45;;
73474;SDS011;61711;52.266;10.542;2022-08-04T17:56:35;9.57;;;3.75;;
73474;SDS011;61711;52.266;10.542;2022-08-04T17:59:04;8.23;;;3.17;;
73474;SDS011;61711;52.266;10.542;2022-08-04T18:04:24;6.03;;;3.40;;
73474;SDS011;61711;52.266;10.542;2022-08-04T18:06:54;6.75;;;3.17;;
73474;SDS011;61711;52.266;10.542;2022-08-04T18:09:21;4.78;;;3.00;;
73474;SDS011;61711;52.266;10.542;2022-08-04T18:11:51;7.28;;;3.30;;
73474;SDS011;61711;52.266;10.542;2022-08-04T18:14:18;6.57;;;3.33;;
73474;SDS011;61711;52.266;10.542;2022-08-04T18:16:44;7.97;;;2.97;;
73474;SDS011;61711;52.266;10.542;2022-08-04T18:19:11;14.20;;;3.30;;
73474;SDS011;61711;52.266;10.542;2022-08-04T18:21:37;8.40;;;3.95;;
73474;SDS011;61711;52.266;10.542;2022-08-04T18:24:03;14.50;;;3.45;;
73474;SDS011;61711;52.266;10.542;2022-08-04T18:26:29;11.93;;;3.35;;
73474;SDS011;61711;52.266;10.542;2022-08-04T18:28:56;12.60;;;3.50;;
73474;SDS011;61711;52.266;10.542;2022-08-04T18:31:22;9.85;;;3.38;;
73474;SDS011;61711;52.266;10.542;2022-08-04T18:33:48;10.02;;;3.75;;
73474;SDS011;61711;52.266;10.542;2022-08-04T18:36:14;8.90;;;3.53;;
73474;SDS011;61711;52.266;10.542;2022-08-04T18:38:40;11.15;;;3.40;;
73474;SDS011;61711;52.266;10.542;2022-08-04T18:41:07;8.65;;;3.30;;
73474;SDS011;61711;52.266;10.542;2022-08-04T18:43:33;7.55;;;3.63;;
73474;SDS011;61711;52.266;10.542;2022-08-04T18:45:59;8.43;;;3.03;;
73474;SDS011;61711;52.266;10.542;2022-08-04T18:48:26;6.97;;;3.17;;
73474;SDS011;61711;52.266;10.542;2022-08-04T18:50:52;8.25;;;3.28;;
73474;SDS011;61711;52.266;10.542;2022-08-04T18:53:19;4.97;;;3.30;;
73474;SDS011;61711;52.266;10.542;2022-08-04T18:55:45;7.90;;;3.30;;
73474;SDS011;61711;52.266;10.542;2022-08-04T18:58:11;6.32;;;3.50;;
73474;SDS011;61711;52.266;10.542;2022-08-04T19:00:37;3.95;;;3.00;;
73474;SDS011;61711;52.266;10.542;2022-08-04T19:03:04;10.32;;;3.65;;
73474;SDS011;61711;52.266;10.542;2022-08-04T19:05:30;9.05;;;3.30;;
73474;SDS011;61711;52.266;10.542;2022-08-04T19:07:56;5.63;;;2.95;;
73474;SDS011;61711;52.266;10.542;2022-08-04T19:10:22;9.65;;;3.35;;
73474;SDS011;61711;52.266;10.542;2022-08-04T19:12:48;9.15;;;3.20;;
73474;SDS011;61711;52.266;10.542;2022-08-04T19:15:14;7.47;;;4.50;;
73474;SDS011;61711;52.266;10.542;2022-08-04T19:17:40;4.63;;;3.70;;
73474;SDS011;61711;52.266;10.542;2022-08-04T19:20:06;6.45;;;3.05;;
73474;SDS011;61711;52.266;10.542;2022-08-04T19:22:32;8.48;;;3.40;;
73474;SDS011;61711;52.266;10.542;2022-08-04T19:24:58;12.57;;;3.75;;